Time;durP1;ratioP1;P1;durP2;ratioP2;P2;SDS_P1;SDS_P2;PMS_P1;PMS_P2;Temp;Humidity;BMP_temperature;BMP_pressure;BME280_temperature;BME280_humidity;BME280_pressure;Samples;Min_cycle;Max_cycle;Signal;HPM_P1;HPM_P2
2022/09/28 00:00:55;;;;;;;3.05;0.57;;;;;;;;;;5034579;28;20020;-72
2022/09/28 00:03:21;;;;;;;2.00;0.40;;;;;;;;;;5034120;28;20502;-72
2022/09/28 00:05:47;;;;;;;2.92;0.50;;;;;;;;;;5034865;28;20029;-72
2022/09/28 00:08:13;;;;;;;1.10;0.50;;;;;;;;;;5034558;28;20021;-72
2022/09/28 00:10:42;;;;;;;2.65;0.40;;;;;;;;;;5034638;28;20026;-73
2022/09/28 00:13:08;;;;;;;1.30;0.50;;;;;;;;;;5034386;28;20091;-73
2022/09/28 00:15:35;;;;;;;1.85;0.50;;;;;;;;;;5034696;28;20025;-72
2022/09/28 00:18:01;;;;;;;2.95;0.93;;;;;;;;;;5033899;28;20028;-72
2022/09/28 00:20:27;;;;;;;1.17;0.30;;;;;;;;;;5034139;28;20516;-72
2022/09/28 00:22:54;;;;;;;1.38;0.30;;;;;;;;;;5034135;28;20040;-72
2022/09/28 00:25:20;;;;;;;0.55;0.25;;;;;;;;;;5034108;28;20041;-72
2022/09/28 00:27:50;;;;;;;2.10;0.40;;;;;;;;;;5034283;28;20014;-72
2022/09/28 00:30:16;;;;;;;1.55;0.40;;;;;;;;;;5034046;28;20024;-72
2022/09/28 00:32:43;;;;;;;1.23;0.30;;;;;;;;;;5033728;28;20395;-72
2022/09/28 00:35:09;;;;;;;1.50;0.20;;;;;;;;;;5033778;28;20021;-72
2022/09/28 00:37:36;;;;;;;0.57;0.30;;;;;;;;;;5033768;28;20033;-72
2022/09/28 00:40:02;;;;;;;1.15;0.20;;;;;;;;;;5033888;28;20385;-72
2022/09/28 00:42:28;;;;;;;0.47;0.22;;;;;;;;;;5032671;28;20025;-73
2022/09/28 00:44:56;;;;;;;0.40;0.20;;;;;;;;;;5033950;28;20528;-72
2022/09/28 00:47:22;;;;;;;0.68;0.10;;;;;;;;;;5033370;28;20033;-73
2022/09/28 00:50:00;;;;;;;0.70;0.22;;;;;;;;;;5033555;28;20026;-72
2022/09/28 00:52:33;;;;;;;2.03;0.20;;;;;;;;;;5033886;28;20025;-72
2022/09/28 00:55:01;;;;;;;0.43;0.10;;;;;;;;;;5034105;28;20032;-72
2022/09/28 00:57:28;;;;;;;0.60;0.30;;;;;;;;;;5033505;28;20035;-72
2022/09/28 00:59:55;;;;;;;0.40;0.20;;;;;;;;;;5033587;28;20055;-72
2022/09/28 01:02:21;;;;;;;0.60;0.20;;;;;;;;;;5032909;28;20389;-72
2022/09/28 01:04:48;;;;;;;0.80;0.20;;;;;;;;;;5033493;28;20402;-72
2022/09/28 01:07:16;;;;;;;0.15;0.10;;;;;;;;;;5033337;28;20028;-72
2022/09/28 01:09:44;;;;;;;0.10;0.10;;;;;;;;;;5033446;28;20040;-72
2022/09/28 01:12:11;;;;;;;0.30;0.20;;;;;;;;;;5033153;28;20045;-73
2022/09/28 01:14:39;;;;;;;0.55;0.22;;;;;;;;;;5031865;28;20033;-72
2022/09/28 01:17:15;;;;;;;0.70;0.20;;;;;;;;;;5031638;28;20033;-72
2022/09/28 01:19:51;;;;;;;0.10;0.10;;;;;;;;;;5033088;28;20034;-72
2022/09/28 01:22:17;;;;;;;0.30;0.20;;;;;;;;;;5033159;28;20018;-72
2022/09/28 01:24:43;;;;;;;0.20;0.20;;;;;;;;;;5032809;28;20057;-72
2022/09/28 01:27:16;;;;;;;0.57;0.10;;;;;;;;;;5032954;28;20025;-72
2022/09/28 01:29:42;;;;;;;0.52;0.10;;;;;;;;;;5032823;28;20040;-72
2022/09/28 01:32:12;;;;;;;0.10;0.10;;;;;;;;;;5032750;28;20021;-73
2022/09/28 01:34:43;;;;;;;0.30;0.20;;;;;;;;;;5032752;28;20047;-72
2022/09/28 01:37:11;;;;;;;0.13;0.10;;;;;;;;;;5032662;28;20136;-72
2022/09/28 01:39:40;;;;;;;0.10;0.10;;;;;;;;;;5032636;28;20498;-72
2022/09/28 01:42:13;;;;;;;1.90;0.10;;;;;;;;;;5032671;28;20083;-72
2022/09/28 01:44:41;;;;;;;0.10;0.10;;;;;;;;;;5032519;28;20032;-73
2022/09/28 01:47:09;;;;;;;0.20;0.20;;;;;;;;;;5031987;28;20017;-72
2022/09/28 01:49:46;;;;;;;0.20;0.10;;;;;;;;;;5031490;28;20424;-72
2022/09/28 01:52:26;;;;;;;0.60;0.10;;;;;;;;;;5032431;28;20374;-72
2022/09/28 01:54:56;;;;;;;0.68;0.10;;;;;;;;;;5032635;28;20024;-72
2022/09/28 01:57:32;;;;;;;1.23;0.20;;;;;;;;;;5032456;28;20033;-72
2022/09/28 02:00:02;;;;;;;0.10;0.10;;;;;;;;;;5032120;28;20028;-72
2022/09/28 02:02:34;;;;;;;0.30;0.10;;;;;;;;;;5032630;28;20470;-72
2022/09/28 02:05:21;;;;;;;0.10;0.10;;;;;;;;;;5032519;28;20029;-72
2022/09/28 02:08:25;;;;;;;0.55;0.30;;;;;;;;;;5028402;28;20025;-72
2022/09/28 02:11:00;;;;;;;0.10;0.10;;;;;;;;;;5010251;28;20037;-72
2022/09/28 02:13:37;;;;;;;0.10;0.10;;;;;;;;;;5010144;28;20038;-72
2022/09/28 02:16:06;;;;;;;0.10;0.10;;;;;;;;;;5010037;28;20029;-72
2022/09/28 02:18:33;;;;;;;0.05;0.05;;;;;;;;;;5010416;28;20050;-72
2022/09/28 02:21:01;;;;;;;0.10;0.10;;;;;;;;;;5010286;28;20026;-72
2022/09/28 02:23:28;;;;;;;0.38;0.20;;;;;;;;;;5010341;28;20041;-72
2022/09/28 02:26:04;;;;;;;0.17;0.10;;;;;;;;;;5010131;28;20030;-72
2022/09/28 02:28:30;;;;;;;0.10;0.10;;;;;;;;;;5009710;28;20030;-72
2022/09/28 02:30:57;;;;;;;0.10;0.10;;;;;;;;;;5010250;28;20018;-72
2022/09/28 02:33:43;;;;;;;0.57;0.20;;;;;;;;;;5010254;28;20026;-72
2022/09/28 02:36:10;;;;;;;0.10;0.10;;;;;;;;;;5010062;28;20040;-71
2022/09/28 02:38:37;;;;;;;0.43;0.10;;;;;;;;;;5009892;28;20032;-72
2022/09/28 02:41:08;;;;;;;1.35;0.13;;;;;;;;;;5010025;28;20036;-72
2022/09/28 02:43:43;;;;;;;1.52;0.17;;;;;;;;;;5009813;28;20030;-73
2022/09/28 02:46:21;;;;;;;2.33;0.10;;;;;;;;;;5031964;28;20030;-72
2022/09/28 02:48:54;;;;;;;0.10;0.10;;;;;;;;;;5031942;28;20040;-72
2022/09/28 02:51:35;;;;;;;0.32;0.15;;;;;;;;;;5031824;28;20025;-72
2022/09/28 02:54:07;;;;;;;0.00;0.00;;;;;;;;;;5031856;28;20496;-72
2022/09/28 02:57:09;;;;;;;0.10;0.10;;;;;;;;;;5032107;28;20491;-72
2022/09/28 02:59:53;;;;;;;2.03;0.10;;;;;;;;;;5013427;28;20125;-73
2022/09/28 03:02:25;;;;;;;0.57;0.17;;;;;;;;;;5013687;28;20034;-72
2022/09/28 03:05:09;;;;;;;0.10;0.10;;;;;;;;;;5013656;28;20030;-72
2022/09/28 03:07:39;;;;;;;1.00;0.10;;;;;;;;;;5013664;28;20036;-72
2022/09/28 03:10:11;;;;;;;0.10;0.10;;;;;;;;;;5013727;28;20033;-72
2022/09/28 03:12:38;;;;;;;0.25;0.10;;;;;;;;;;5013067;28;20387;-72
2022/09/28 03:15:08;;;;;;;0.70;0.10;;;;;;;;;;5013829;28;20045;-72
2022/09/28 03:17:34;;;;;;;0.05;0.05;;;;;;;;;;5013711;28;20022;-72
2022/09/28 03:20:01;;;;;;;0.22;0.10;;;;;;;;;;5013460;28;20048;-72
2022/09/28 03:22:27;;;;;;;0.45;0.10;;;;;;;;;;5013401;28;20029;-72
2022/09/28 03:24:53;;;;;;;0.20;0.10;;;;;;;;;;5013410;28;20042;-72
2022/09/28 03:27:20;;;;;;;0.10;0.10;;;;;;;;;;5012920;28;20086;-72
2022/09/28 03:29:47;;;;;;;0.10;0.10;;;;;;;;;;5013272;28;20045;-72
2022/09/28 03:32:13;;;;;;;0.57;0.10;;;;;;;;;;5013181;28;20033;-72
2022/09/28 03:34:39;;;;;;;0.63;0.10;;;;;;;;;;5034213;28;20033;-72
2022/09/28 03:37:05;;;;;;;0.00;0.00;;;;;;;;;;5035180;28;20029;-72
2022/09/28 03:39:32;;;;;;;0.10;0.10;;;;;;;;;;5034992;28;20017;-72
2022/09/28 03:42:00;;;;;;;0.10;0.10;;;;;;;;;;5034982;28;20029;-72
2022/09/28 03:44:26;;;;;;;0.08;0.08;;;;;;;;;;5034846;28;20033;-72
2022/09/28 03:46:53;;;;;;;0.10;0.10;;;;;;;;;;5035120;28;20025;-72
2022/09/28 03:49:19;;;;;;;0.25;0.10;;;;;;;;;;5034703;28;20025;-72
2022/09/28 03:51:46;;;;;;;1.48;0.10;;;;;;;;;;5034653;28;20018;-72
2022/09/28 03:54:12;;;;;;;0.10;0.10;;;;;;;;;;5034773;28;20037;-72
2022/09/28 03:56:39;;;;;;;0.65;0.10;;;;;;;;;;5034215;28;20475;-72
2022/09/28 03:59:06;;;;;;;0.43;0.20;;;;;;;;;;5034803;28;20022;-72
2022/09/28 04:01:32;;;;;;;0.17;0.10;;;;;;;;;;5034547;28;20033;-72
2022/09/28 04:03:59;;;;;;;0.20;0.20;;;;;;;;;;5034629;28;20493;-72
2022/09/28 04:06:25;;;;;;;0.38;0.20;;;;;;;;;;5034519;28;20496;-72
2022/09/28 04:08:52;;;;;;;0.57;0.30;;;;;;;;;;5032468;28;20064;-72
2022/09/28 04:11:18;;;;;;;0.43;0.28;;;;;;;;;;5034032;28;20018;-72
2022/09/28 04:13:48;;;;;;;0.52;0.20;;;;;;;;;;5034337;28;20033;-72
2022/09/28 04:16:16;;;;;;;3.17;0.37;;;;;;;;;;5034450;28;20091;-72
2022/09/28 04:18:43;;;;;;;1.27;0.20;;;;;;;;;;5034335;28;20395;-73
2022/09/28 04:21:14;;;;;;;0.65;0.22;;;;;;;;;;5033097;28;20024;-72
2022/09/28 04:23:40;;;;;;;0.13;0.13;;;;;;;;;;5034315;28;20413;-72
2022/09/28 04:26:08;;;;;;;0.35;0.20;;;;;;;;;;5033774;28;20026;-72
2022/09/28 04:31:21;;;;;;;1.13;0.30;;;;;;;;;;5034348;28;20029;-72
2022/09/28 04:33:47;;;;;;;0.70;0.30;;;;;;;;;;5033920;28;20025;-72
2022/09/28 04:36:14;;;;;;;0.98;0.35;;;;;;;;;;5034132;28;20018;-72
2022/09/28 04:38:40;;;;;;;0.28;0.20;;;;;;;;;;5033703;28;20067;-72
2022/09/28 04:41:06;;;;;;;1.35;0.30;;;;;;;;;;5032391;28;20029;-72
2022/09/28 04:43:33;;;;;;;0.98;0.30;;;;;;;;;;5033711;28;20508;-72
2022/09/28 04:46:00;;;;;;;0.20;0.20;;;;;;;;;;5033713;28;20032;-72
2022/09/28 04:48:26;;;;;;;0.45;0.30;;;;;;;;;;5033734;28;20036;-72
2022/09/28 04:50:54;;;;;;;0.88;0.30;;;;;;;;;;5033768;28;20082;-72
2022/09/28 04:53:20;;;;;;;1.55;0.32;;;;;;;;;;5033427;28;20512;-72
2022/09/28 04:55:54;;;;;;;1.20;0.30;;;;;;;;;;5033509;28;20026;-72
2022/09/28 04:58:21;;;;;;;0.30;0.30;;;;;;;;;;5033750;28;20022;-72
2022/09/28 05:00:50;;;;;;;0.57;0.40;;;;;;;;;;5033826;28;20032;-72
2022/09/28 05:03:16;;;;;;;1.50;0.55;;;;;;;;;;5033546;28;20401;-72
2022/09/28 05:05:44;;;;;;;1.75;0.50;;;;;;;;;;5033568;28;20028;-72
2022/09/28 05:08:10;;;;;;;2.50;0.60;;;;;;;;;;5033454;28;20030;-72
2022/09/28 05:10:39;;;;;;;3.35;0.82;;;;;;;;;;5032284;28;20034;-72
2022/09/28 05:13:06;;;;;;;1.25;0.45;;;;;;;;;;5033335;28;20041;-72
2022/09/28 05:15:34;;;;;;;2.20;0.60;;;;;;;;;;5033356;28;20025;-72
2022/09/28 05:18:00;;;;;;;1.65;0.60;;;;;;;;;;5033208;28;20010;-72
2022/09/28 05:20:26;;;;;;;1.88;0.45;;;;;;;;;;5032134;28;20035;-71
2022/09/28 05:22:53;;;;;;;1.48;0.40;;;;;;;;;;5032775;28;20033;-72
2022/09/28 05:25:19;;;;;;;3.20;0.70;;;;;;;;;;5033196;28;20029;-72
2022/09/28 05:27:46;;;;;;;1.83;0.80;;;;;;;;;;5033214;28;20025;-72
2022/09/28 05:30:12;;;;;;;2.80;1.00;;;;;;;;;;5033067;28;20028;-72
2022/09/28 05:32:42;;;;;;;1.27;0.60;;;;;;;;;;5032890;28;20051;-72
2022/09/28 05:35:10;;;;;;;0.88;0.47;;;;;;;;;;5032831;28;20417;-72
2022/09/28 05:37:36;;;;;;;0.73;0.30;;;;;;;;;;5032717;28;20025;-72
2022/09/28 05:40:03;;;;;;;2.22;0.32;;;;;;;;;;5032920;28;20033;-72
2022/09/28 05:42:30;;;;;;;1.92;0.40;;;;;;;;;;5032879;28;20021;-72
2022/09/28 05:44:59;;;;;;;0.60;0.30;;;;;;;;;;5032602;28;20409;-72
2022/09/28 05:47:26;;;;;;;1.85;0.47;;;;;;;;;;5032751;28;20029;-72
2022/09/28 05:49:53;;;;;;;0.90;0.30;;;;;;;;;;5032620;28;20034;-72
2022/09/28 05:52:19;;;;;;;0.80;0.30;;;;;;;;;;5032260;28;20478;-72
2022/09/28 05:54:46;;;;;;;0.57;0.22;;;;;;;;;;5032567;28;20024;-72
2022/09/28 05:57:13;;;;;;;0.88;0.38;;;;;;;;;;5047771;28;20394;-72
2022/09/28 05:59:39;;;;;;;0.52;0.20;;;;;;;;;;5032708;28;20093;-72
2022/09/28 06:02:06;;;;;;;0.85;0.40;;;;;;;;;;5032385;28;20029;-72
2022/09/28 06:04:32;;;;;;;2.17;0.50;;;;;;;;;;5032199;28;20033;-72
2022/09/28 06:06:59;;;;;;;2.45;0.50;;;;;;;;;;5032102;28;20491;-72
2022/09/28 06:09:25;;;;;;;0.77;0.30;;;;;;;;;;5032288;28;20036;-73
2022/09/28 06:11:52;;;;;;;1.85;0.52;;;;;;;;;;5032036;28;20120;-72
2022/09/28 06:14:18;;;;;;;0.40;0.38;;;;;;;;;;5032222;28;20039;-72
2022/09/28 06:16:45;;;;;;;0.70;0.40;;;;;;;;;;5032156;28;20075;-72
2022/09/28 06:19:11;;;;;;;2.75;0.40;;;;;;;;;;5032144;28;20033;-72
2022/09/28 06:21:38;;;;;;;3.63;0.70;;;;;;;;;;5025507;28;20018;-72
2022/09/28 06:24:04;;;;;;;1.65;0.40;;;;;;;;;;5029764;28;20549;-72
2022/09/28 06:26:30;;;;;;;1.23;0.60;;;;;;;;;;5029527;28;20037;-73
2022/09/28 06:28:59;;;;;;;1.35;0.45;;;;;;;;;;5029042;28;20021;-72
2022/09/28 06:31:28;;;;;;;0.88;0.30;;;;;;;;;;5026036;28;20044;-73
2022/09/28 06:33:55;;;;;;;2.63;0.55;;;;;;;;;;5029852;28;20029;-72
2022/09/28 06:36:21;;;;;;;1.30;0.50;;;;;;;;;;5031024;28;20022;-72
2022/09/28 06:38:48;;;;;;;2.55;0.80;;;;;;;;;;5028723;28;20048;-72
2022/09/28 06:41:15;;;;;;;4.95;1.67;;;;;;;;;;5023079;28;20030;-72
2022/09/28 06:43:41;;;;;;;1.92;0.95;;;;;;;;;;5021462;28;20555;-72
2022/09/28 06:46:12;;;;;;;5.05;0.98;;;;;;;;;;5011384;28;20477;-72
2022/09/28 06:48:39;;;;;;;1.60;0.80;;;;;;;;;;5011613;28;20022;-73
2022/09/28 06:51:06;;;;;;;1.85;0.55;;;;;;;;;;5013082;28;20017;-72
2022/09/28 06:53:32;;;;;;;1.80;0.50;;;;;;;;;;5031110;28;20040;-72
2022/09/28 06:55:59;;;;;;;2.10;0.70;;;;;;;;;;5031176;28;20036;-72
2022/09/28 06:58:27;;;;;;;2.08;0.65;;;;;;;;;;5031188;28;20041;-72
2022/09/28 07:00:58;;;;;;;2.47;0.50;;;;;;;;;;5031093;28;20017;-72
2022/09/28 07:03:24;;;;;;;;;;;;;;;;;;5031556;28;20026;-71
2022/09/28 07:05:52;;;;;;;1.52;0.60;;;;;;;;;;5030780;28;20281;-72
2022/09/28 07:08:20;;;;;;;1.73;0.70;;;;;;;;;;5034758;28;20028;-72
2022/09/28 07:10:48;;;;;;;1.00;0.63;;;;;;;;;;5030784;28;20030;-72
2022/09/28 07:13:16;;;;;;;0.73;0.30;;;;;;;;;;5030745;28;20045;-72
2022/09/28 07:15:42;;;;;;;0.95;0.40;;;;;;;;;;5030788;28;20383;-72
2022/09/28 07:18:11;;;;;;;1.02;0.63;;;;;;;;;;5031356;28;20026;-72
2022/09/28 07:20:37;;;;;;;2.72;0.65;;;;;;;;;;5030504;28;20035;-72
2022/09/28 07:23:05;;;;;;;0.50;0.50;;;;;;;;;;5029680;28;20022;-72
2022/09/28 07:25:31;;;;;;;1.33;0.55;;;;;;;;;;5031223;28;20021;-72
2022/09/28 07:27:59;;;;;;;0.90;0.40;;;;;;;;;;5028028;28;20018;-72
2022/09/28 07:30:26;;;;;;;1.95;0.57;;;;;;;;;;5029194;28;20033;-72
2022/09/28 07:32:53;;;;;;;0.32;0.30;;;;;;;;;;5037463;28;20033;-72
2022/09/28 07:35:21;;;;;;;13.75;1.00;;;;;;;;;;5025534;28;20029;-72
2022/09/28 07:37:47;;;;;;;2.22;0.40;;;;;;;;;;5026501;28;20056;-72
2022/09/28 07:43:05;;;;;;;0.52;0.30;;;;;;;;;;5030443;28;20043;-72
2022/09/28 07:45:34;;;;;;;2.00;0.50;;;;;;;;;;5033490;28;20040;-72
2022/09/28 07:48:01;;;;;;;0.95;0.40;;;;;;;;;;5033559;28;20024;-73
2022/09/28 07:50:28;;;;;;;0.95;0.70;;;;;;;;;;5033848;28;20401;-73
2022/09/28 07:52:57;;;;;;;3.67;0.30;;;;;;;;;;5033504;28;20025;-73
2022/09/28 07:55:24;;;;;;;1.35;0.30;;;;;;;;;;5014106;28;20022;-73
2022/09/28 07:58:00;;;;;;;0.68;0.30;;;;;;;;;;5017861;28;20017;-72
2022/09/28 08:00:33;;;;;;;3.50;0.32;;;;;;;;;;5036243;28;20496;-73
2022/09/28 08:03:00;;;;;;;0.63;0.40;;;;;;;;;;5035925;28;20027;-73
2022/09/28 08:05:30;;;;;;;0.85;0.40;;;;;;;;;;5033170;28;20029;-73
2022/09/28 08:07:57;;;;;;;0.45;0.30;;;;;;;;;;5032374;28;20448;-73
2022/09/28 08:10:24;;;;;;;0.28;0.28;;;;;;;;;;5033217;28;20021;-73
2022/09/28 08:13:00;;;;;;;0.60;0.50;;;;;;;;;;5035227;28;20041;-73
2022/09/28 08:15:26;;;;;;;3.05;0.38;;;;;;;;;;5033067;28;20029;-73
2022/09/28 08:17:53;;;;;;;0.38;0.38;;;;;;;;;;5032512;28;20025;-73
2022/09/28 08:23:07;;;;;;;0.43;0.30;;;;;;;;;;5033029;28;20026;-73
2022/09/28 08:25:37;;;;;;;1.10;0.38;;;;;;;;;;5032865;28;20033;-72
2022/09/28 08:28:03;;;;;;;1.73;0.40;;;;;;;;;;5033031;28;20467;-72
2022/09/28 08:30:30;;;;;;;0.30;0.30;;;;;;;;;;5033238;28;20385;-73
2022/09/28 08:32:57;;;;;;;0.90;0.30;;;;;;;;;;5035213;28;20497;-73
2022/09/28 08:35:24;;;;;;;0.40;0.20;;;;;;;;;;5033485;28;20033;-73
2022/09/28 08:37:53;;;;;;;0.75;0.20;;;;;;;;;;5031928;28;20028;-73
2022/09/28 08:40:24;;;;;;;0.17;0.17;;;;;;;;;;5029714;28;20026;-73
2022/09/28 08:42:56;;;;;;;1.42;0.30;;;;;;;;;;5030471;28;20036;-73
2022/09/28 08:45:25;;;;;;;3.25;0.32;;;;;;;;;;5022240;28;20041;-72
2022/09/28 08:50:52;;;;;;;0.20;0.20;;;;;;;;;;5032190;28;20401;-72
2022/09/28 08:53:30;;;;;;;1.00;0.38;;;;;;;;;;5032057;28;20059;-73
2022/09/28 08:55:57;;;;;;;0.20;0.20;;;;;;;;;;5031574;28;20363;-73
2022/09/28 08:58:27;;;;;;;0.52;0.20;;;;;;;;;;5032594;28;20040;-74
2022/09/28 09:00:53;;;;;;;0.10;0.10;;;;;;;;;;5031008;28;20013;-73
2022/09/28 09:03:34;;;;;;;0.20;0.20;;;;;;;;;;5031547;28;20045;-73
2022/09/28 09:06:12;;;;;;;0.30;0.30;;;;;;;;;;5014700;28;20540;-73
2022/09/28 09:08:45;;;;;;;1.52;0.30;;;;;;;;;;5012340;28;20034;-74
2022/09/28 09:11:21;;;;;;;0.38;0.20;;;;;;;;;;5016761;28;20033;-72
2022/09/28 09:14:06;;;;;;;1.38;0.30;;;;;;;;;;5032980;28;20028;-73
2022/09/28 09:16:36;;;;;;;1.55;0.30;;;;;;;;;;5025411;28;20028;-73
2022/09/28 09:19:34;;;;;;;2.30;0.50;;;;;;;;;;5031777;28;20409;-73
2022/09/28 09:22:14;;;;;;;3.03;0.90;;;;;;;;;;5031781;28;20029;-75
2022/09/28 09:24:49;;;;;;;1.10;0.52;;;;;;;;;;5031724;28;20038;-73
2022/09/28 09:27:42;;;;;;;1.02;0.47;;;;;;;;;;5031700;28;20073;-73
2022/09/28 09:30:11;;;;;;;1.38;0.30;;;;;;;;;;5031088;28;20393;-73
2022/09/28 09:32:43;;;;;;;3.28;0.52;;;;;;;;;;5031289;28;20018;-73
2022/09/28 09:35:20;;;;;;;1.10;0.52;;;;;;;;;;5031905;28;20506;-73
2022/09/28 09:37:59;;;;;;;2.50;0.47;;;;;;;;;;5023432;28;20024;-73
2022/09/28 09:40:44;;;;;;;0.68;0.60;;;;;;;;;;5031728;28;20507;-73
2022/09/28 09:43:14;;;;;;;1.27;0.52;;;;;;;;;;5026593;28;20029;-72
2022/09/28 09:45:49;;;;;;;0.80;0.57;;;;;;;;;;5046937;28;20042;-72
2022/09/28 09:48:25;;;;;;;5.70;0.60;;;;;;;;;;5031567;28;20022;-73
2022/09/28 09:50:58;;;;;;;0.30;0.30;;;;;;;;;;5021604;28;20033;-73
2022/09/28 09:53:36;;;;;;;0.77;0.57;;;;;;;;;;5029117;28;20029;-73
2022/09/28 09:56:20;;;;;;;1.10;0.40;;;;;;;;;;5031509;28;20026;-73
2022/09/28 09:58:50;;;;;;;1.58;0.70;;;;;;;;;;5029993;28;20509;-74
2022/09/28 10:01:18;;;;;;;2.65;0.70;;;;;;;;;;5017424;28;20019;-73
2022/09/28 10:03:47;;;;;;;3.08;0.52;;;;;;;;;;5028681;28;20029;-72
2022/09/28 10:06:16;;;;;;;3.40;0.68;;;;;;;;;;5028281;28;20026;-73
2022/09/28 10:08:45;;;;;;;0.93;0.30;;;;;;;;;;5031305;28;20033;-72
2022/09/28 10:11:18;;;;;;;3.40;0.40;;;;;;;;;;5031090;28;20086;-73
2022/09/28 10:13:48;;;;;;;4.85;0.30;;;;;;;;;;5030339;28;20102;-73
2022/09/28 10:16:17;;;;;;;0.93;0.32;;;;;;;;;;5031374;28;20033;-72
2022/09/28 10:18:44;;;;;;;1.35;0.30;;;;;;;;;;5031136;28;20029;-73
2022/09/28 10:21:14;;;;;;;0.65;0.20;;;;;;;;;;5030829;28;20508;-72
2022/09/28 10:23:41;;;;;;;0.60;0.20;;;;;;;;;;5031281;28;20041;-72
2022/09/28 10:26:14;;;;;;;0.40;0.22;;;;;;;;;;5030918;28;20017;-73
2022/09/28 10:28:53;;;;;;;0.77;0.30;;;;;;;;;;5030237;28;20033;-73
2022/09/28 10:31:38;;;;;;;1.60;0.30;;;;;;;;;;5030931;28;20033;-73
2022/09/28 10:34:05;;;;;;;1.00;0.38;;;;;;;;;;5031546;28;20055;-73
2022/09/28 10:36:37;;;;;;;2.10;1.33;;;;;;;;;;5029273;28;20481;-73
2022/09/28 10:39:21;;;;;;;0.90;0.60;;;;;;;;;;5031017;28;20037;-73
2022/09/28 10:41:51;;;;;;;2.75;0.50;;;;;;;;;;5029364;28;20037;-73
2022/09/28 10:44:18;;;;;;;3.35;0.63;;;;;;;;;;5031271;28;20486;-72
2022/09/28 10:46:54;;;;;;;0.70;0.57;;;;;;;;;;5030834;28;20030;-73
2022/09/28 10:49:21;;;;;;;0.25;0.20;;;;;;;;;;5031112;28;20021;-73
2022/09/28 10:51:50;;;;;;;2.78;0.50;;;;;;;;;;5031149;28;20040;-73
2022/09/28 10:54:16;;;;;;;3.05;0.77;;;;;;;;;;5030640;28;20393;-73
2022/09/28 10:56:43;;;;;;;1.63;0.90;;;;;;;;;;5030865;28;20425;-73
2022/09/28 10:59:33;;;;;;;1.50;0.98;;;;;;;;;;5031199;28;20036;-73
2022/09/28 11:02:01;;;;;;;2.70;0.77;;;;;;;;;;5027519;28;20045;-73
2022/09/28 11:04:28;;;;;;;1.92;0.90;;;;;;;;;;5030447;28;20436;-72
2022/09/28 11:06:57;;;;;;;2.33;0.88;;;;;;;;;;5030956;28;20036;-72
2022/09/28 11:09:35;;;;;;;2.35;0.95;;;;;;;;;;5030756;28;20029;-72
2022/09/28 11:12:04;;;;;;;2.80;1.30;;;;;;;;;;5030061;28;20110;-72
2022/09/28 11:14:35;;;;;;;1.95;0.80;;;;;;;;;;5028092;28;20028;-72
2022/09/28 11:17:14;;;;;;;1.98;1.58;;;;;;;;;;5031026;28;20479;-72
2022/09/28 11:19:41;;;;;;;2.85;1.25;;;;;;;;;;5034423;28;20394;-72
2022/09/28 11:22:22;;;;;;;1.63;1.25;;;;;;;;;;5033721;28;20025;-72
2022/09/28 11:24:49;;;;;;;3.92;1.90;;;;;;;;;;5034323;28;20029;-72
2022/09/28 11:27:20;;;;;;;2.92;1.48;;;;;;;;;;5032559;28;20044;-72
2022/09/28 11:29:55;;;;;;;1.60;0.90;;;;;;;;;;5031307;28;20034;-73
2022/09/28 11:32:25;;;;;;;2.35;0.85;;;;;;;;;;5015024;28;20034;-73
2022/09/28 11:34:52;;;;;;;1.30;0.50;;;;;;;;;;5025863;28;20036;-72
2022/09/28 11:37:26;;;;;;;0.98;0.50;;;;;;;;;;5014289;28;20037;-73
2022/09/28 11:39:52;;;;;;;1.23;0.55;;;;;;;;;;5013709;28;20429;-73
2022/09/28 11:42:18;;;;;;;1.05;0.60;;;;;;;;;;5014404;28;20018;-73
2022/09/28 11:44:46;;;;;;;2.05;0.70;;;;;;;;;;5014421;28;20038;-73
2022/09/28 11:47:31;;;;;;;1.13;0.60;;;;;;;;;;5014159;28;20032;-73
2022/09/28 11:50:03;;;;;;;0.80;0.38;;;;;;;;;;5014062;28;20034;-73
2022/09/28 11:53:02;;;;;;;0.93;0.70;;;;;;;;;;5013798;28;20021;-73
2022/09/28 11:55:33;;;;;;;1.10;0.57;;;;;;;;;;5011658;28;20076;-73
2022/09/28 11:58:12;;;;;;;2.75;0.40;;;;;;;;;;5010902;28;20076;-73
2022/09/28 12:00:43;;;;;;;1.13;0.40;;;;;;;;;;5011126;28;20072;-72
2022/09/28 12:03:09;;;;;;;;;;;;;;;;;;5012177;28;20091;-73
2022/09/28 12:05:44;;;;;;;2.40;0.40;;;;;;;;;;5011873;28;19914;-73
2022/09/28 12:08:19;;;;;;;1.60;0.60;;;;;;;;;;5012215;28;20042;-72
2022/09/28 12:10:52;;;;;;;1.23;0.63;;;;;;;;;;4995078;28;20462;-73
2022/09/28 12:13:21;;;;;;;2.40;0.70;;;;;;;;;;4989550;28;20060;-73
2022/09/28 12:15:47;;;;;;;1.70;0.60;;;;;;;;;;4988499;28;20495;-73
2022/09/28 12:18:19;;;;;;;0.98;0.50;;;;;;;;;;4991891;28;20053;-73
2022/09/28 12:20:47;;;;;;;2.28;0.73;;;;;;;;;;4975574;28;20034;-73
2022/09/28 12:23:19;;;;;;;2.95;0.82;;;;;;;;;;4991307;28;20470;-73
2022/09/28 12:25:58;;;;;;;4.22;1.05;;;;;;;;;;4990898;28;20539;-73
2022/09/28 12:28:29;;;;;;;1.92;0.65;;;;;;;;;;4989892;28;20534;-73
2022/09/28 12:30:58;;;;;;;4.85;0.70;;;;;;;;;;5003553;28;20109;-73
2022/09/28 12:33:25;;;;;;;2.17;0.52;;;;;;;;;;5013269;28;20022;-73
2022/09/28 12:36:06;;;;;;;2.50;0.77;;;;;;;;;;5013304;28;20028;-73
2022/09/28 12:38:47;;;;;;;1.65;0.68;;;;;;;;;;5013039;28;20033;-73
2022/09/28 12:41:16;;;;;;;3.25;1.00;;;;;;;;;;5013039;28;20018;-73
2022/09/28 12:44:03;;;;;;;2.53;0.68;;;;;;;;;;5013138;28;20053;-73
2022/09/28 12:46:45;;;;;;;2.38;0.80;;;;;;;;;;5013248;28;20026;-73
2022/09/28 12:49:19;;;;;;;1.50;0.80;;;;;;;;;;5012452;28;20548;-73
2022/09/28 12:51:52;;;;;;;3.83;0.88;;;;;;;;;;5012623;28;20022;-73
2022/09/28 12:54:33;;;;;;;6.15;0.98;;;;;;;;;;5013174;28;20525;-73
2022/09/28 12:57:02;;;;;;;3.67;0.82;;;;;;;;;;5012866;28;20493;-73
2022/09/28 12:59:54;;;;;;;3.47;0.70;;;;;;;;;;5012824;28;20026;-72
2022/09/28 13:02:37;;;;;;;1.27;0.75;;;;;;;;;;5012699;28;20505;-73
2022/09/28 13:05:15;;;;;;;5.32;0.95;;;;;;;;;;5012639;28;20026;-72
2022/09/28 13:07:49;;;;;;;2.90;0.80;;;;;;;;;;5012392;28;20034;-73
2022/09/28 13:10:19;;;;;;;3.13;0.88;;;;;;;;;;5012846;28;20449;-73
2022/09/28 13:12:45;;;;;;;5.22;0.85;;;;;;;;;;5012732;28;20034;-73
2022/09/28 13:15:14;;;;;;;4.60;0.95;;;;;;;;;;5013064;28;20040;-73
2022/09/28 13:17:51;;;;;;;3.05;0.98;;;;;;;;;;5028282;28;20020;-73
2022/09/28 13:20:17;;;;;;;4.85;0.90;;;;;;;;;;5031075;28;20428;-72
2022/09/28 13:22:55;;;;;;;3.55;0.77;;;;;;;;;;5031917;28;20030;-73
2022/09/28 13:25:24;;;;;;;5.05;1.98;;;;;;;;;;5031776;28;20452;-73
2022/09/28 13:27:56;;;;;;;9.52;4.35;;;;;;;;;;5032164;28;20028;-73
2022/09/28 13:30:24;;;;;;;4.38;2.10;;;;;;;;;;5032122;28;20022;-73
2022/09/28 13:32:51;;;;;;;5.30;1.55;;;;;;;;;;5032174;28;20044;-75
2022/09/28 13:35:18;;;;;;;3.17;1.00;;;;;;;;;;5031694;28;20036;-72
2022/09/28 13:37:45;;;;;;;4.03;1.13;;;;;;;;;;5031938;28;20021;-72
2022/09/28 13:40:11;;;;;;;4.35;0.98;;;;;;;;;;5032400;28;20029;-72
2022/09/28 13:42:41;;;;;;;1.88;0.85;;;;;;;;;;5030890;28;20070;-72
2022/09/28 13:45:29;;;;;;;3.13;0.90;;;;;;;;;;5031742;28;20040;-72
2022/09/28 13:48:13;;;;;;;2.67;0.82;;;;;;;;;;5031681;28;20028;-72
2022/09/28 13:50:42;;;;;;;1.02;0.73;;;;;;;;;;5031373;28;20032;-72
2022/09/28 13:53:09;;;;;;;6.60;1.85;;;;;;;;;;5031571;28;20028;-72
2022/09/28 13:55:41;;;;;;;6.82;2.38;;;;;;;;;;5031899;28;20025;-72
2022/09/28 13:58:26;;;;;;;2.60;1.23;;;;;;;;;;5031589;28;20405;-72
2022/09/28 14:01:11;;;;;;;3.28;1.33;;;;;;;;;;5031487;28;20044;-73
2022/09/28 14:04:09;;;;;;;4.05;1.90;;;;;;;;;;5031455;28;20030;-73
2022/09/28 14:06:36;;;;;;;4.40;2.28;;;;;;;;;;5031334;28;20029;-73
2022/09/28 14:09:17;;;;;;;3.72;1.23;;;;;;;;;;5031254;28;20033;-73
2022/09/28 14:11:54;;;;;;;3.42;1.40;;;;;;;;;;5015020;28;20045;-73
2022/09/28 14:14:28;;;;;;;2.30;1.00;;;;;;;;;;5011721;28;20105;-73
2022/09/28 14:17:14;;;;;;;1.52;0.68;;;;;;;;;;5021194;28;20104;-73
2022/09/28 14:19:41;;;;;;;2.83;0.90;;;;;;;;;;5030527;28;20022;-73
2022/09/28 14:22:16;;;;;;;2.67;0.90;;;;;;;;;;5031457;28;20029;-72
2022/09/28 14:25:02;;;;;;;1.40;0.63;;;;;;;;;;5015889;28;20051;-73
2022/09/28 14:27:47;;;;;;;1.95;0.65;;;;;;;;;;5044305;28;20030;-71
2022/09/28 14:30:13;;;;;;;2.85;0.93;;;;;;;;;;5023749;28;20048;-72
2022/09/28 14:32:42;;;;;;;5.88;1.20;;;;;;;;;;5011374;28;20036;-72
2022/09/28 14:35:23;;;;;;;1.58;0.80;;;;;;;;;;5011333;28;20024;-73
2022/09/28 14:41:08;;;;;;;3.85;1.40;;;;;;;;;;5010669;28;20022;-72
2022/09/28 14:43:57;;;;;;;3.28;1.10;;;;;;;;;;5009602;28;20034;-73
2022/09/28 14:46:28;;;;;;;3.78;1.17;;;;;;;;;;5009670;28;20076;-73
2022/09/28 14:48:56;;;;;;;5.90;0.98;;;;;;;;;;5009798;28;20560;-72
2022/09/28 14:51:28;;;;;;;2.63;0.80;;;;;;;;;;5010147;28;20049;-72
2022/09/28 14:54:05;;;;;;;2.67;1.13;;;;;;;;;;5012478;28;20041;-73
2022/09/28 14:56:39;;;;;;;3.13;0.80;;;;;;;;;;5013856;28;20442;-73
2022/09/28 14:59:06;;;;;;;2.85;0.88;;;;;;;;;;5013840;28;20042;-73
2022/09/28 15:01:33;;;;;;;2.17;0.88;;;;;;;;;;5013855;28;20038;-73
2022/09/28 15:04:03;;;;;;;6.18;0.90;;;;;;;;;;5013336;28;20034;-73
2022/09/28 15:06:45;;;;;;;5.43;0.93;;;;;;;;;;5013713;28;20052;-73
2022/09/28 15:09:27;;;;;;;4.00;1.00;;;;;;;;;;5013696;28;20084;-73
2022/09/28 15:12:06;;;;;;;3.78;1.02;;;;;;;;;;4997336;28;20045;-73
2022/09/28 15:14:41;;;;;;;3.10;0.70;;;;;;;;;;5013558;28;20075;-72
2022/09/28 15:17:11;;;;;;;3.33;0.80;;;;;;;;;;5001845;28;20396;-72
2022/09/28 15:19:43;;;;;;;4.07;0.83;;;;;;;;;;5022698;28;20040;-72